Time;durP1;ratioP1;P1;durP2;ratioP2;P2;SDS_P1;SDS_P2;PMS_P1;PMS_P2;Temp;Humidity;BMP_temperature;BMP_pressure;BME280_temperature;BME280_humidity;BME280_pressure;Samples;Min_cycle;Max_cycle;Signal;HPM_P1;HPM_P2
2020/12/27 00:01:30;;;;;;;26.33;13.13;;;;;;;;;;5094623;28;20032;-73
2020/12/27 00:03:56;;;;;;;24.05;13.57;;;;;;;;;;5063568;28;20583;-73
2020/12/27 00:06:30;;;;;;;26.27;14.10;;;;;;;;;;5065400;28;20051;-74
2020/12/27 00:08:56;;;;;;;22.58;13.68;;;;;;;;;;5097476;28;20171;-76
2020/12/27 00:11:22;;;;;;;20.88;11.80;;;;;;;;;;5095426;28;20466;-76
2020/12/27 00:13:48;;;;;;;26.52;13.70;;;;;;;;;;5094624;28;20023;-74
2020/12/27 00:16:14;;;;;;;32.17;13.68;;;;;;;;;;5095140;28;20028;-73
2020/12/27 00:18:40;;;;;;;27.02;12.02;;;;;;;;;;5093467;28;20118;-76
2020/12/27 00:21:12;;;;;;;30.60;11.35;;;;;;;;;;5062631;28;20037;-74
2020/12/27 00:23:38;;;;;;;23.58;11.63;;;;;;;;;;5092043;28;20047;-77
2020/12/27 00:26:14;;;;;;;23.00;11.95;;;;;;;;;;5067564;28;20016;-75
2020/12/27 00:28:40;;;;;;;27.77;14.40;;;;;;;;;;5093402;28;20016;-75
2020/12/27 00:31:06;;;;;;;25.80;14.80;;;;;;;;;;5076135;28;20075;-73
2020/12/27 00:33:40;;;;;;;29.17;13.68;;;;;;;;;;5093389;28;20020;-74
2020/12/27 00:36:15;;;;;;;;;;;;;;;;;;5075741;28;20019;-79
2020/12/27 00:38:41;;;;;;;21.55;12.15;;;;;;;;;;5075923;28;19912;-76
2020/12/27 00:41:07;;;;;;;26.02;12.07;;;;;;;;;;5075154;28;20314;-75
2020/12/27 00:43:33;;;;;;;18.02;10.00;;;;;;;;;;5076062;28;20024;-74
2020/12/27 00:45:59;;;;;;;19.42;11.00;;;;;;;;;;5094080;28;20472;-75
2020/12/27 00:48:25;;;;;;;16.75;8.45;;;;;;;;;;5093351;28;20462;-75
2020/12/27 00:50:51;;;;;;;21.85;9.93;;;;;;;;;;5088263;28;20032;-77
2020/12/27 00:53:17;;;;;;;18.80;9.20;;;;;;;;;;5094096;28;20149;-80
2020/12/27 00:55:43;;;;;;;18.70;9.85;;;;;;;;;;5093960;28;20044;-73
2020/12/27 00:58:10;;;;;;;18.10;10.65;;;;;;;;;;5094236;28;20020;-75
2020/12/27 01:00:36;;;;;;;25.08;11.98;;;;;;;;;;5084144;28;20028;-74
2020/12/27 01:03:02;;;;;;;24.27;12.07;;;;;;;;;;5066182;28;20028;-74
2020/12/27 01:05:28;;;;;;;18.85;10.00;;;;;;;;;;5089776;28;20016;-74
2020/12/27 01:07:54;;;;;;;21.83;11.35;;;;;;;;;;5088835;28;20015;-74
2020/12/27 01:10:28;;;;;;;18.42;9.85;;;;;;;;;;5087714;28;20108;-73
2020/12/27 01:12:54;;;;;;;16.27;9.77;;;;;;;;;;5066402;28;20112;-76
2020/12/27 01:15:20;;;;;;;21.67;10.60;;;;;;;;;;5071853;28;20470;-72
2020/12/27 01:17:46;;;;;;;22.35;10.82;;;;;;;;;;5093297;28;20458;-73
2020/12/27 01:20:12;;;;;;;25.90;10.82;;;;;;;;;;5084116;28;20068;-75
2020/12/27 01:22:38;;;;;;;20.77;11.90;;;;;;;;;;5093869;28;20053;-73
2020/12/27 01:25:04;;;;;;;24.08;13.00;;;;;;;;;;5092620;28;20066;-72
2020/12/27 01:27:30;;;;;;;21.15;12.20;;;;;;;;;;5098983;28;20028;-76
2020/12/27 01:29:56;;;;;;;23.00;10.82;;;;;;;;;;5099000;28;20051;-73
2020/12/27 01:32:22;;;;;;;28.50;12.05;;;;;;;;;;5091114;28;20358;-73
2020/12/27 01:34:48;;;;;;;20.98;10.90;;;;;;;;;;5092337;28;20032;-76
2020/12/27 01:37:14;;;;;;;22.80;12.68;;;;;;;;;;5092329;28;20373;-74
2020/12/27 01:39:40;;;;;;;25.63;13.75;;;;;;;;;;5088894;28;20031;-75
2020/12/27 01:42:07;;;;;;;26.50;12.73;;;;;;;;;;5092580;28;20075;-74
2020/12/27 01:44:33;;;;;;;27.55;12.52;;;;;;;;;;5091853;28;20024;-75
2020/12/27 01:46:59;;;;;;;22.42;12.70;;;;;;;;;;5092199;28;20038;-74
2020/12/27 01:49:25;;;;;;;26.75;12.43;;;;;;;;;;5091415;28;20428;-71
2020/12/27 01:51:51;;;;;;;23.92;11.25;;;;;;;;;;5093343;28;20027;-73
2020/12/27 01:54:17;;;;;;;18.98;11.85;;;;;;;;;;5092699;28;20028;-73
2020/12/27 01:56:43;;;;;;;21.30;12.43;;;;;;;;;;5092786;28;20020;-71
2020/12/27 01:59:11;;;;;;;21.13;11.35;;;;;;;;;;5093042;28;20031;-72
2020/12/27 02:01:38;;;;;;;17.45;11.85;;;;;;;;;;5092507;28;20044;-72
2020/12/27 02:04:04;;;;;;;19.35;10.00;;;;;;;;;;5092627;28;20027;-70
2020/12/27 02:06:31;;;;;;;18.10;11.02;;;;;;;;;;5092527;28;20366;-71
2020/12/27 02:08:58;;;;;;;18.30;10.57;;;;;;;;;;5092170;28;20493;-73
2020/12/27 02:11:25;;;;;;;17.73;10.10;;;;;;;;;;5092523;28;20020;-72
2020/12/27 02:13:56;;;;;;;20.10;10.68;;;;;;;;;;5091984;28;20021;-73
2020/12/27 02:16:23;;;;;;;17.70;10.63;;;;;;;;;;5092058;28;20232;-73
2020/12/27 02:18:50;;;;;;;19.73;11.52;;;;;;;;;;5071873;28;20024;-73
2020/12/27 02:21:17;;;;;;;20.58;11.65;;;;;;;;;;5072412;28;20032;-76
2020/12/27 02:23:43;;;;;;;20.77;10.52;;;;;;;;;;5092289;28;20023;-76
2020/12/27 02:26:09;;;;;;;16.23;9.32;;;;;;;;;;5091944;28;20020;-73
2020/12/27 02:28:35;;;;;;;22.92;11.63;;;;;;;;;;5081241;28;20024;-74
2020/12/27 02:31:02;;;;;;;17.92;10.20;;;;;;;;;;5091947;28;20060;-74
2020/12/27 02:33:28;;;;;;;19.73;10.40;;;;;;;;;;5089034;28;20496;-75
2020/12/27 02:35:54;;;;;;;25.63;11.60;;;;;;;;;;5092724;28;20378;-72
2020/12/27 02:38:20;;;;;;;24.67;12.93;;;;;;;;;;5091707;28;20047;-70
2020/12/27 02:40:46;;;;;;;22.77;11.43;;;;;;;;;;5077653;28;20029;-73
2020/12/27 02:43:16;;;;;;;24.98;12.60;;;;;;;;;;5092641;28;20486;-73
2020/12/27 02:45:42;;;;;;;21.20;12.23;;;;;;;;;;5092115;28;20073;-73
2020/12/27 02:48:09;;;;;;;19.40;11.30;;;;;;;;;;5092160;28;20529;-72
2020/12/27 02:50:35;;;;;;;19.73;10.60;;;;;;;;;;5092604;28;20028;-72
2020/12/27 02:53:02;;;;;;;26.38;12.93;;;;;;;;;;5091896;28;20035;-73
2020/12/27 02:55:28;;;;;;;29.27;10.85;;;;;;;;;;5073950;28;20024;-74
2020/12/27 02:57:54;;;;;;;23.35;12.57;;;;;;;;;;5092186;28;20421;-72
2020/12/27 03:00:35;;;;;;;23.15;12.63;;;;;;;;;;5092565;28;20036;-77
2020/12/27 03:03:02;;;;;;;19.33;11.88;;;;;;;;;;5074834;28;20358;-77
2020/12/27 03:05:28;;;;;;;23.50;12.95;;;;;;;;;;5075402;28;20020;-80
2020/12/27 03:07:54;;;;;;;24.60;13.27;;;;;;;;;;5074186;28;20024;-73
2020/12/27 03:10:20;;;;;;;24.45;13.60;;;;;;;;;;5092072;28;20032;-72
2020/12/27 03:12:47;;;;;;;26.20;13.50;;;;;;;;;;5092432;28;20036;-73
2020/12/27 03:15:13;;;;;;;22.77;12.50;;;;;;;;;;5092062;28;20024;-73
2020/12/27 03:17:39;;;;;;;19.85;11.43;;;;;;;;;;5091538;28;20107;-72
2020/12/27 03:20:06;;;;;;;16.58;10.27;;;;;;;;;;5091801;28;20351;-75
2020/12/27 03:22:32;;;;;;;22.55;10.95;;;;;;;;;;5090875;28;20031;-72
2020/12/27 03:24:58;;;;;;;17.00;9.35;;;;;;;;;;5091753;28;20093;-73
2020/12/27 03:27:24;;;;;;;16.63;9.90;;;;;;;;;;5079547;28;20020;-74
2020/12/27 03:29:51;;;;;;;14.02;9.23;;;;;;;;;;5092294;28;20055;-73
2020/12/27 03:32:20;;;;;;;20.17;9.20;;;;;;;;;;5091640;28;20024;-72
2020/12/27 03:34:47;;;;;;;13.88;7.15;;;;;;;;;;5091788;28;20016;-72
2020/12/27 03:37:15;;;;;;;16.83;9.65;;;;;;;;;;5092933;28;20023;-73
2020/12/27 03:39:43;;;;;;;20.20;8.90;;;;;;;;;;5082309;28;20016;-72
2020/12/27 03:42:10;;;;;;;16.20;9.23;;;;;;;;;;5095736;28;20148;-72
2020/12/27 03:44:38;;;;;;;16.70;8.32;;;;;;;;;;5095987;28;20466;-72
2020/12/27 03:47:05;;;;;;;18.52;10.38;;;;;;;;;;5096586;28;20136;-72
2020/12/27 03:49:33;;;;;;;16.00;7.80;;;;;;;;;;5093355;28;20020;-73
2020/12/27 03:52:01;;;;;;;16.95;8.73;;;;;;;;;;5094397;28;20023;-72
2020/12/27 03:54:28;;;;;;;15.75;10.15;;;;;;;;;;5094374;28;20023;-74
2020/12/27 03:56:54;;;;;;;18.25;10.50;;;;;;;;;;5094271;28;20355;-73
2020/12/27 03:59:20;;;;;;;20.40;10.43;;;;;;;;;;5076456;28;20389;-74
2020/12/27 04:01:46;;;;;;;17.20;9.43;;;;;;;;;;5094096;28;20085;-74
2020/12/27 04:04:12;;;;;;;17.75;10.35;;;;;;;;;;5093957;28;20088;-73
2020/12/27 04:06:38;;;;;;;18.80;10.60;;;;;;;;;;5094247;28;20024;-72
2020/12/27 04:09:04;;;;;;;18.77;10.52;;;;;;;;;;5095423;28;20047;-72
2020/12/27 04:11:30;;;;;;;18.40;10.82;;;;;;;;;;5097123;28;20020;-74
2020/12/27 04:13:56;;;;;;;17.27;11.20;;;;;;;;;;5098903;28;20058;-73
2020/12/27 04:16:23;;;;;;;20.35;10.52;;;;;;;;;;5096022;28;20187;-75
2020/12/27 04:18:49;;;;;;;18.55;9.50;;;;;;;;;;5076800;28;20020;-74
2020/12/27 04:21:15;;;;;;;22.13;10.15;;;;;;;;;;5095946;28;20081;-74
2020/12/27 04:23:41;;;;;;;16.88;10.38;;;;;;;;;;5095275;28;20462;-74
2020/12/27 04:26:07;;;;;;;22.95;11.35;;;;;;;;;;5095630;28;20024;-75
2020/12/27 04:28:33;;;;;;;23.40;11.68;;;;;;;;;;5095272;28;20031;-76
2020/12/27 04:30:59;;;;;;;20.77;11.10;;;;;;;;;;5097990;28;20071;-74
2020/12/27 04:33:25;;;;;;;25.40;12.68;;;;;;;;;;5109895;28;20494;-74
2020/12/27 04:35:51;;;;;;;20.63;12.23;;;;;;;;;;5102848;28;20446;-72
2020/12/27 04:38:17;;;;;;;20.70;13.10;;;;;;;;;;5095650;28;20470;-74
2020/12/27 04:40:43;;;;;;;20.88;10.68;;;;;;;;;;5094797;28;20035;-74
2020/12/27 04:43:10;;;;;;;20.73;10.75;;;;;;;;;;5095031;28;20095;-75
2020/12/27 04:45:36;;;;;;;19.27;10.68;;;;;;;;;;5076917;28;20423;-75
2020/12/27 04:48:02;;;;;;;22.77;11.57;;;;;;;;;;5095188;28;20541;-73
2020/12/27 04:50:28;;;;;;;22.60;11.85;;;;;;;;;;5094889;28;20027;-73
2020/12/27 04:52:55;;;;;;;23.15;11.25;;;;;;;;;;5094351;28;20374;-74
2020/12/27 04:55:21;;;;;;;26.05;13.77;;;;;;;;;;5094707;28;20027;-73
2020/12/27 04:57:50;;;;;;;23.17;13.10;;;;;;;;;;5094947;28;20032;-74
2020/12/27 05:00:17;;;;;;;31.33;15.27;;;;;;;;;;5094664;28;20028;-74
2020/12/27 05:02:43;;;;;;;22.98;12.63;;;;;;;;;;5095178;28;20027;-73
2020/12/27 05:05:14;;;;;;;23.88;12.60;;;;;;;;;;5094351;28;20012;-74
2020/12/27 05:07:46;;;;;;;22.33;11.93;;;;;;;;;;5094852;28;20031;-74
2020/12/27 05:10:12;;;;;;;21.33;11.40;;;;;;;;;;5094385;28;20023;-74
2020/12/27 05:12:39;;;;;;;19.50;11.77;;;;;;;;;;5094425;28;20021;-76
2020/12/27 05:15:08;;;;;;;32.50;17.98;;;;;;;;;;5094545;28;20024;-76
2020/12/27 05:17:34;;;;;;;34.67;17.52;;;;;;;;;;5076437;28;20016;-77
2020/12/27 05:20:20;;;;;;;28.67;14.77;;;;;;;;;;5094056;28;20036;-73
2020/12/27 05:22:47;;;;;;;29.40;14.27;;;;;;;;;;5094606;28;20032;-78
2020/12/27 05:25:14;;;;;;;26.58;13.27;;;;;;;;;;5056501;28;20016;-76
2020/12/27 05:27:41;;;;;;;22.17;12.63;;;;;;;;;;5082889;28;20414;-75
2020/12/27 05:30:08;;;;;;;21.15;12.05;;;;;;;;;;5092562;28;20552;-74
2020/12/27 05:32:34;;;;;;;19.80;10.73;;;;;;;;;;5081732;28;20437;-75
2020/12/27 05:35:00;;;;;;;18.25;10.32;;;;;;;;;;5093608;28;20048;-75
2020/12/27 05:37:27;;;;;;;22.80;10.93;;;;;;;;;;5093848;28;20030;-73
2020/12/27 05:39:53;;;;;;;22.85;11.43;;;;;;;;;;5075982;28;20024;-71
2020/12/27 05:42:26;;;;;;;26.52;12.40;;;;;;;;;;5075709;28;20432;-74
2020/12/27 05:44:55;;;;;;;23.02;13.07;;;;;;;;;;5080784;28;20100;-74
2020/12/27 05:47:21;;;;;;;28.52;13.70;;;;;;;;;;5093511;28;20021;-73
2020/12/27 05:49:47;;;;;;;29.90;16.67;;;;;;;;;;5093650;28;20024;-73
2020/12/27 05:52:17;;;;;;;39.72;17.38;;;;;;;;;;5093784;28;20035;-74
2020/12/27 05:54:47;;;;;;;35.03;19.75;;;;;;;;;;5079366;28;20012;-74
2020/12/27 05:57:15;;;;;;;36.40;18.25;;;;;;;;;;5093624;28;20374;-74
2020/12/27 05:59:43;;;;;;;33.88;15.98;;;;;;;;;;5093443;28;20020;-74
2020/12/27 06:02:22;;;;;;;15.90;10.65;;;;;;;;;;5094082;28;20394;-73
2020/12/27 06:05:06;;;;;;;18.88;10.25;;;;;;;;;;5094162;28;20027;-75
2020/12/27 06:07:39;;;;;;;22.10;10.02;;;;;;;;;;5093862;28;20023;-74
2020/12/27 06:10:05;;;;;;;22.98;12.43;;;;;;;;;;5075277;28;20027;-75
2020/12/27 06:12:57;;;;;;;23.70;12.45;;;;;;;;;;5093621;28;20023;-76
2020/12/27 06:15:25;;;;;;;21.60;11.35;;;;;;;;;;5061430;28;20039;-74
2020/12/27 06:17:51;;;;;;;17.20;10.90;;;;;;;;;;5081132;28;20031;-76
2020/12/27 06:20:18;;;;;;;21.35;10.48;;;;;;;;;;5091620;28;20048;-74
2020/12/27 06:22:47;;;;;;;25.10;12.05;;;;;;;;;;5093044;28;20095;-75
2020/12/27 06:25:13;;;;;;;17.77;10.93;;;;;;;;;;5093686;28;20035;-76
2020/12/27 06:27:39;;;;;;;18.13;9.60;;;;;;;;;;5093517;28;20070;-76
2020/12/27 06:30:22;;;;;;;18.70;10.50;;;;;;;;;;5092961;28;20044;-76
2020/12/27 06:32:56;;;;;;;20.30;9.57;;;;;;;;;;5076383;28;20365;-75
2020/12/27 06:35:35;;;;;;;17.98;8.85;;;;;;;;;;5093525;28;20024;-73
2020/12/27 06:38:01;;;;;;;17.75;9.35;;;;;;;;;;5079205;28;20093;-74
2020/12/27 06:40:28;;;;;;;14.43;7.88;;;;;;;;;;5093363;28;20020;-76
2020/12/27 06:43:13;;;;;;;17.23;8.20;;;;;;;;;;5093035;28;20793;-74
2020/12/27 06:45:39;;;;;;;17.67;8.30;;;;;;;;;;5093013;28;20020;-75
2020/12/27 06:48:05;;;;;;;21.13;8.38;;;;;;;;;;5093251;28;20048;-77
2020/12/27 06:50:31;;;;;;;18.40;8.63;;;;;;;;;;5092586;28;20024;-76
2020/12/27 06:52:57;;;;;;;15.10;8.18;;;;;;;;;;5074944;28;20024;-73
2020/12/27 06:55:39;;;;;;;17.85;10.73;;;;;;;;;;5092941;28;20016;-74
2020/12/27 06:58:17;;;;;;;19.92;8.77;;;;;;;;;;5092827;28;20378;-74
2020/12/27 07:00:43;;;;;;;17.83;8.90;;;;;;;;;;5093030;28;20089;-74
2020/12/27 07:03:16;;;;;;;18.92;9.50;;;;;;;;;;5092679;28;20478;-72
2020/12/27 07:05:43;;;;;;;19.83;10.40;;;;;;;;;;5074511;28;20478;-75
2020/12/27 07:08:10;;;;;;;16.48;9.38;;;;;;;;;;5092735;28;20026;-73
2020/12/27 07:10:37;;;;;;;20.10;9.45;;;;;;;;;;5093235;28;20036;-75
2020/12/27 07:13:22;;;;;;;17.02;8.13;;;;;;;;;;5094666;28;20420;-74
2020/12/27 07:15:52;;;;;;;20.75;10.50;;;;;;;;;;5096808;28;20438;-73
2020/12/27 07:18:21;;;;;;;25.02;13.80;;;;;;;;;;5096533;28;20028;-75
2020/12/27 07:20:50;;;;;;;28.90;15.45;;;;;;;;;;5096741;28;20042;-76
2020/12/27 07:23:25;;;;;;;36.35;17.13;;;;;;;;;;5078486;28;20016;-74
2020/12/27 07:25:55;;;;;;;27.00;13.68;;;;;;;;;;5096432;28;20087;-76
2020/12/27 07:28:22;;;;;;;19.67;10.82;;;;;;;;;;5078405;28;20099;-74
2020/12/27 07:30:49;;;;;;;23.45;11.50;;;;;;;;;;5096766;28;20050;-73
2020/12/27 07:33:16;;;;;;;22.65;11.65;;;;;;;;;;5078299;28;20020;-72
2020/12/27 07:35:42;;;;;;;19.55;11.07;;;;;;;;;;5096461;28;20370;-71
2020/12/27 07:38:09;;;;;;;16.77;9.05;;;;;;;;;;5101268;28;20465;-70
2020/12/27 07:40:36;;;;;;;22.00;12.98;;;;;;;;;;5103572;28;20032;-72
2020/12/27 07:43:08;;;;;;;24.95;12.60;;;;;;;;;;5097618;28;20104;-73
2020/12/27 07:45:34;;;;;;;26.35;13.32;;;;;;;;;;5096419;28;20023;-72
2020/12/27 07:48:00;;;;;;;28.77;13.90;;;;;;;;;;5077363;28;20070;-75
2020/12/27 07:50:26;;;;;;;32.65;16.38;;;;;;;;;;5095956;28;20024;-72
2020/12/27 07:52:55;;;;;;;33.88;20.17;;;;;;;;;;5095959;28;20039;-73
2020/12/27 07:55:35;;;;;;;33.95;16.13;;;;;;;;;;5095426;28;20020;-71
2020/12/27 07:58:05;;;;;;;38.08;21.13;;;;;;;;;;5074066;28;20063;-71
2020/12/27 08:00:32;;;;;;;26.40;15.82;;;;;;;;;;5093494;28;20020;-73
2020/12/27 08:02:59;;;;;;;35.17;18.10;;;;;;;;;;5086794;28;20055;-72
2020/12/27 08:05:25;;;;;;;33.40;17.60;;;;;;;;;;5093763;28;20032;-71
2020/12/27 08:07:53;;;;;;;26.55;13.43;;;;;;;;;;5077399;28;20074;-72
2020/12/27 08:10:21;;;;;;;24.88;11.52;;;;;;;;;;5096405;28;20111;-72
2020/12/27 08:12:57;;;;;;;20.45;11.77;;;;;;;;;;5093772;28;20438;-72
2020/12/27 08:15:24;;;;;;;27.33;15.02;;;;;;;;;;5078369;28;20016;-72
2020/12/27 08:17:59;;;;;;;26.85;14.50;;;;;;;;;;5099603;28;20055;-71
2020/12/27 08:20:26;;;;;;;35.05;20.98;;;;;;;;;;5092885;28;20078;-71
2020/12/27 08:22:59;;;;;;;27.48;15.38;;;;;;;;;;5093477;28;20457;-73
2020/12/27 08:25:25;;;;;;;33.00;14.80;;;;;;;;;;5094298;28;20073;-72
2020/12/27 08:27:54;;;;;;;25.90;11.43;;;;;;;;;;5094029;28;20028;-73
2020/12/27 08:30:21;;;;;;;18.77;11.10;;;;;;;;;;5093208;28;20063;-72
2020/12/27 08:32:47;;;;;;;29.15;13.02;;;;;;;;;;5092472;28;20385;-74
2020/12/27 08:35:25;;;;;;;36.95;17.55;;;;;;;;;;5093033;28;20016;-73
2020/12/27 08:38:01;;;;;;;26.83;14.32;;;;;;;;;;5093702;28;20141;-73
2020/12/27 08:40:28;;;;;;;29.50;14.95;;;;;;;;;;5093435;28;20074;-74
2020/12/27 08:42:55;;;;;;;31.92;17.17;;;;;;;;;;5092669;28;20020;-74
2020/12/27 08:45:21;;;;;;;28.88;15.80;;;;;;;;;;5091839;28;20115;-73
2020/12/27 08:48:07;;;;;;;28.67;15.50;;;;;;;;;;5091437;28;20041;-72
2020/12/27 08:50:36;;;;;;;26.52;15.15;;;;;;;;;;5073738;28;20130;-73
2020/12/27 08:53:03;;;;;;;29.58;15.32;;;;;;;;;;5090695;28;20035;-73
2020/12/27 08:55:30;;;;;;;29.90;16.00;;;;;;;;;;5090305;28;20199;-74
2020/12/27 08:58:00;;;;;;;24.75;13.60;;;;;;;;;;5066874;28;20075;-73
2020/12/27 09:00:35;;;;;;;20.98;11.20;;;;;;;;;;5094729;28;20424;-73
2020/12/27 09:03:02;;;;;;;23.63;12.25;;;;;;;;;;5094750;28;20058;-70
2020/12/27 09:05:28;;;;;;;15.63;8.85;;;;;;;;;;5087751;28;20035;-72
2020/12/27 09:07:55;;;;;;;43.55;21.55;;;;;;;;;;5094528;28;20024;-72
2020/12/27 09:10:22;;;;;;;26.38;12.85;;;;;;;;;;5093972;28;20025;-72
2020/12/27 09:13:04;;;;;;;40.67;17.15;;;;;;;;;;5094324;28;20481;-71
2020/12/27 09:15:32;;;;;;;25.58;11.77;;;;;;;;;;5094530;28;20028;-72
2020/12/27 09:17:59;;;;;;;19.80;8.45;;;;;;;;;;5089651;28;20023;-72
2020/12/27 09:20:26;;;;;;;5.97;2.05;;;;;;;;;;5082743;28;20058;-79
2020/12/27 09:22:52;;;;;;;7.07;2.75;;;;;;;;;;5090663;28;20055;-76
2020/12/27 09:25:20;;;;;;;8.20;5.72;;;;;;;;;;5089776;28;20032;-74
2020/12/27 09:27:47;;;;;;;6.90;3.10;;;;;;;;;;5089660;28;20020;-74
2020/12/27 09:30:17;;;;;;;7.60;3.47;;;;;;;;;;5093415;28;20071;-73
2020/12/27 09:32:44;;;;;;;5.70;3.15;;;;;;;;;;5075207;28;20699;-73
2020/12/27 09:35:17;;;;;;;6.28;2.50;;;;;;;;;;5063053;28;20044;-73
2020/12/27 09:37:43;;;;;;;4.30;2.22;;;;;;;;;;5086014;28;20020;-76
2020/12/27 09:40:10;;;;;;;6.40;2.90;;;;;;;;;;5093418;28;20024;-77
2020/12/27 09:42:36;;;;;;;5.32;3.03;;;;;;;;;;5092836;28;20044;-76
2020/12/27 09:45:22;;;;;;;3.88;2.80;;;;;;;;;;5093173;28;20032;-75
2020/12/27 09:47:55;;;;;;;3.92;2.53;;;;;;;;;;5074864;28;20024;-75
2020/12/27 09:50:26;;;;;;;3.28;1.83;;;;;;;;;;5092656;28;20478;-74
2020/12/27 09:52:52;;;;;;;5.40;3.28;;;;;;;;;;5092755;28;20053;-73
2020/12/27 09:55:18;;;;;;;3.60;2.17;;;;;;;;;;5093277;28;20020;-73
2020/12/27 09:57:44;;;;;;;6.30;3.00;;;;;;;;;;5092495;28;20048;-72
2020/12/27 10:00:11;;;;;;;6.57;3.55;;;;;;;;;;5090593;28;20020;-74
2020/12/27 10:02:37;;;;;;;4.00;2.42;;;;;;;;;;5091661;28;20487;-74
2020/12/27 10:05:03;;;;;;;3.53;2.13;;;;;;;;;;5092087;28;20020;-73
2020/12/27 10:07:29;;;;;;;5.60;2.63;;;;;;;;;;5092678;28;20024;-73
2020/12/27 10:09:55;;;;;;;4.40;2.85;;;;;;;;;;5092745;28;20445;-74
2020/12/27 10:12:22;;;;;;;3.42;1.88;;;;;;;;;;5092756;28;20028;-75
2020/12/27 10:14:48;;;;;;;4.00;2.47;;;;;;;;;;5074506;28;20020;-76
2020/12/27 10:17:15;;;;;;;3.58;2.33;;;;;;;;;;5092441;28;20030;-72
2020/12/27 10:19:41;;;;;;;5.82;3.53;;;;;;;;;;5090484;28;20019;-74
2020/12/27 10:22:07;;;;;;;5.05;1.95;;;;;;;;;;5093066;28;20527;-73
2020/12/27 10:24:33;;;;;;;3.63;1.95;;;;;;;;;;5073955;28;20024;-73
2020/12/27 10:27:02;;;;;;;2.58;1.45;;;;;;;;;;5089803;28;20052;-78
2020/12/27 10:29:29;;;;;;;5.18;2.70;;;;;;;;;;5054672;28;20048;-79
2020/12/27 10:31:56;;;;;;;6.57;3.33;;;;;;;;;;5071428;28;20035;-78
2020/12/27 10:34:22;;;;;;;8.45;2.83;;;;;;;;;;5083658;28;20065;-79
2020/12/27 10:36:49;;;;;;;3.00;1.80;;;;;;;;;;5083945;28;20027;-75
2020/12/27 10:39:16;;;;;;;3.92;2.60;;;;;;;;;;5075141;28;20024;-75
2020/12/27 10:41:45;;;;;;;4.35;2.85;;;;;;;;;;5095198;28;20044;-75
2020/12/27 10:44:12;;;;;;;10.20;3.88;;;;;;;;;;5107163;28;20020;-76
2020/12/27 10:46:38;;;;;;;4.00;2.25;;;;;;;;;;5098611;28;20111;-74
2020/12/27 10:49:07;;;;;;;8.88;4.50;;;;;;;;;;5096091;28;20032;-75
2020/12/27 10:51:40;;;;;;;11.82;3.90;;;;;;;;;;5092543;28;20056;-75
2020/12/27 10:54:07;;;;;;;5.75;3.80;;;;;;;;;;5092899;28;20056;-78
2020/12/27 10:56:33;;;;;;;10.85;4.43;;;;;;;;;;5095397;28;20020;-74
2020/12/27 10:58:59;;;;;;;5.80;3.33;;;;;;;;;;5094761;28;20107;-77
2020/12/27 11:01:25;;;;;;;5.18;2.70;;;;;;;;;;5073456;28;20028;-75
2020/12/27 11:03:52;;;;;;;5.25;2.88;;;;;;;;;;5092773;28;20076;-75
2020/12/27 11:06:18;;;;;;;4.90;2.58;;;;;;;;;;5075675;28;20027;-75
2020/12/27 11:08:44;;;;;;;7.95;4.35;;;;;;;;;;5094999;28;20024;-79
2020/12/27 11:11:11;;;;;;;11.98;4.43;;;;;;;;;;5076432;28;20024;-73
2020/12/27 11:13:37;;;;;;;4.50;2.67;;;;;;;;;;5071213;28;20366;-74
2020/12/27 11:16:03;;;;;;;5.63;2.92;;;;;;;;;;5069478;28;20095;-74
2020/12/27 11:18:29;;;;;;;4.32;2.50;;;;;;;;;;5070224;28;20662;-75
2020/12/27 11:20:55;;;;;;;4.38;2.28;;;;;;;;;;5071365;28;20061;-73
2020/12/27 11:23:21;;;;;;;4.85;2.72;;;;;;;;;;5069478;28;20052;-74
2020/12/27 11:25:48;;;;;;;3.38;2.38;;;;;;;;;;5093697;28;20179;-73
2020/12/27 11:28:16;;;;;;;3.63;2.20;;;;;;;;;;5096610;28;20024;-74
2020/12/27 11:30:42;;;;;;;2.58;1.60;;;;;;;;;;5070964;28;20044;-74
2020/12/27 11:33:09;;;;;;;3.85;2.03;;;;;;;;;;5096403;28;20052;-73
2020/12/27 11:35:35;;;;;;;3.28;1.63;;;;;;;;;;5076450;28;20381;-73
2020/12/27 11:38:01;;;;;;;3.95;2.25;;;;;;;;;;5095823;28;20081;-74
2020/12/27 11:40:27;;;;;;;3.63;2.38;;;;;;;;;;5095939;28;20535;-73
2020/12/27 11:42:53;;;;;;;6.95;2.95;;;;;;;;;;5069943;28;20024;-76
2020/12/27 11:45:19;;;;;;;5.35;2.75;;;;;;;;;;5072820;28;20020;-71
2020/12/27 11:47:45;;;;;;;3.60;2.08;;;;;;;;;;5094244;28;20469;-73
2020/12/27 11:50:11;;;;;;;5.50;2.75;;;;;;;;;;5094894;28;20096;-73
2020/12/27 11:52:37;;;;;;;8.15;4.22;;;;;;;;;;5093696;28;20039;-71
2020/12/27 11:55:05;;;;;;;5.90;2.25;;;;;;;;;;5094630;28;20104;-74
2020/12/27 11:57:37;;;;;;;5.95;2.33;;;;;;;;;;5074214;28;20028;-74
2020/12/27 12:00:06;;;;;;;5.47;3.15;;;;;;;;;;5092833;28;20024;-75
2020/12/27 12:02:32;;;;;;;10.50;3.42;;;;;;;;;;5072564;28;20043;-72
2020/12/27 12:04:58;;;;;;;4.85;2.92;;;;;;;;;;5086969;28;20597;-73
2020/12/27 12:07:24;;;;;;;4.47;2.15;;;;;;;;;;5087808;28;20545;-74
2020/12/27 12:09:51;;;;;;;3.20;2.10;;;;;;;;;;5094710;28;20020;-73
2020/12/27 12:12:17;;;;;;;6.80;3.22;;;;;;;;;;5094465;28;20374;-74
2020/12/27 12:14:43;;;;;;;3.15;2.00;;;;;;;;;;5097233;28;20465;-73
2020/12/27 12:17:09;;;;;;;4.20;2.15;;;;;;;;;;5098779;28;20378;-74
2020/12/27 12:19:35;;;;;;;4.82;2.22;;;;;;;;;;5092963;28;20029;-74
2020/12/27 12:22:01;;;;;;;4.63;2.67;;;;;;;;;;5094490;28;20051;-73
2020/12/27 12:24:29;;;;;;;8.63;4.10;;;;;;;;;;5095231;28;20031;-72
2020/12/27 12:27:03;;;;;;;7.20;3.92;;;;;;;;;;5068640;28;20024;-77
2020/12/27 12:29:32;;;;;;;6.82;3.20;;;;;;;;;;5091919;28;20035;-78
2020/12/27 12:31:58;;;;;;;7.90;3.63;;;;;;;;;;5068919;28;20017;-73
2020/12/27 12:34:24;;;;;;;8.00;4.18;;;;;;;;;;5068374;28;20020;-74
2020/12/27 12:36:51;;;;;;;4.38;2.25;;;;;;;;;;5077475;28;20024;-73
2020/12/27 12:39:17;;;;;;;6.95;3.40;;;;;;;;;;5077098;28;20032;-74
2020/12/27 12:41:43;;;;;;;7.22;2.90;;;;;;;;;;5094956;28;20029;-74
2020/12/27 12:44:12;;;;;;;6.63;3.80;;;;;;;;;;5095508;28;20025;-78
2020/12/27 12:46:37;;;;;;;6.25;3.35;;;4.70;99.90;;;;;;5096341;28;20374;-74
2020/12/27 12:49:03;;;;;;;8.32;3.83;;;4.70;99.90;;;;;;5095175;28;20020;-72
2020/12/27 12:51:29;;;;;;;15.15;3.17;;;4.70;99.90;;;;;;5090356;28;20027;-73
2020/12/27 12:53:55;;;;;;;5.22;2.88;;;4.70;99.90;;;;;;5093906;28;20082;-74
2020/12/27 12:56:23;;;;;;;6.45;2.63;;;4.70;99.90;;;;;;5092417;28;20484;-73
2020/12/27 12:58:48;;;;;;;3.40;1.80;;;4.70;99.90;;;;;;5093648;28;20050;-75
2020/12/27 13:01:14;;;;;;;3.00;1.88;;;4.60;99.90;;;;;;5091794;28;20060;-75
2020/12/27 13:03:42;;;;;;;4.05;1.92;;;4.60;99.90;;;;;;5092102;28;20397;-73
2020/12/27 13:06:12;;;;;;;3.80;2.13;;;4.60;99.90;;;;;;5093650;28;20032;-74
2020/12/27 13:08:38;;;;;;;3.45;1.80;;;4.60;99.90;;;;;;5093333;28;20016;-74
2020/12/27 13:11:05;;;;;;;5.47;2.80;;;4.60;99.90;;;;;;5091115;28;20028;-74
2020/12/27 13:13:31;;;;;;;3.15;2.10;;;4.50;99.90;;;;;;5092359;28;20016;-75
2020/12/27 13:15:57;;;;;;;4.72;2.45;;;4.50;99.90;;;;;;5069818;28;20028;-75
2020/12/27 13:18:23;;;;;;;4.72;2.10;;;4.50;99.90;;;;;;5092217;28;20049;-74
2020/12/27 13:20:49;;;;;;;10.90;3.33;;;4.50;99.90;;;;;;5091585;28;20089;-73
2020/12/27 13:23:15;;;;;;;6.28;3.50;;;4.60;99.90;;;;;;5088434;28;20051;-72
2020/12/27 13:25:41;;;;;;;4.03;2.53;;;4.60;99.90;;;;;;5087890;28;20523;-73
2020/12/27 13:28:07;;;;;;;15.98;5.53;;;4.50;99.90;;;;;;5093343;28;20024;-73
2020/12/27 13:30:33;;;;;;;6.65;3.33;;;4.50;99.90;;;;;;5092197;28;20055;-74
2020/12/27 13:33:12;;;;;;;9.75;3.97;;;4.50;99.90;;;;;;5084610;28;20035;-78
2020/12/27 13:35:38;;;;;;;17.17;6.50;;;4.50;99.90;;;;;;5091500;28;20032;-73
2020/12/27 13:38:22;;;;;;;11.35;4.45;;;4.50;99.90;;;;;;5092503;28;20082;-74
2020/12/27 13:40:56;;;;;;;4.75;3.10;;;4.60;99.90;;;;;;5086943;28;20116;-79
2020/12/27 13:43:22;;;;;;;3.53;2.03;;;4.60;99.90;;;;;;5066739;28;20119;-73
2020/12/27 13:45:48;;;;;;;11.20;5.07;;;4.50;99.90;;;;;;5093626;28;20048;-73
2020/12/27 13:48:14;;;;;;;6.40;3.28;;;4.60;99.90;;;;;;5078930;28;20033;-76
2020/12/27 13:50:39;;;;;;;9.23;4.10;;;4.50;99.90;;;;;;5094189;28;20023;-75
2020/12/27 13:53:05;;;;;;;7.53;4.00;;;4.60;99.90;;;;;;5090952;28;20020;-74
2020/12/27 13:55:31;;;;;;;6.70;3.58;;;4.60;99.90;;;;;;5091917;28;20304;-78
2020/12/27 13:57:57;;;;;;;8.40;4.40;;;4.50;99.90;;;;;;5074472;28;20028;-77
2020/12/27 14:00:22;;;;;;;6.10;3.00;;;4.50;99.90;;;;;;5087358;28;20024;-73
2020/12/27 14:02:48;;;;;;;12.48;5.28;;;4.50;99.90;;;;;;5090840;28;20115;-71
2020/12/27 14:05:14;;;;;;;5.90;2.88;;;4.50;99.90;;;;;;5091866;28;20655;-72
2020/12/27 14:07:39;;;;;;;5.85;2.85;;;4.50;99.90;;;;;;5092059;28;20032;-77
2020/12/27 14:10:06;;;;;;;7.95;3.58;;;4.50;99.90;;;;;;5073663;28;20039;-73
2020/12/27 14:12:31;;;;;;;4.60;2.40;;;4.50;99.90;;;;;;5092123;28;20035;-74
2020/12/27 14:14:59;;;;;;;5.25;2.53;;;4.40;99.90;;;;;;5074410;28;20382;-74
2020/12/27 14:17:25;;;;;;;4.22;2.42;;;4.50;99.90;;;;;;5091913;28;20020;-78